createdAt,value
2018-02-06T00:02:20.028Z,69.43
2018-02-06T00:04:46.545Z,71.87
2018-02-06T00:07:12.951Z,65.10
2018-02-06T00:09:39.668Z,69.32
2018-02-06T00:12:06.539Z,73.20
2018-02-06T00:14:33.040Z,64.05
2018-02-06T00:16:59.588Z,63.25
2018-02-06T00:19:26.076Z,66.53
2018-02-06T00:21:52.639Z,64.05
2018-02-06T00:24:19.104Z,62.75
2018-02-06T00:26:45.729Z,55.67
2018-02-06T00:29:12.247Z,59.00
2018-02-06T00:31:38.740Z,54.55
2018-02-06T00:34:05.634Z,52.45
2018-02-06T00:36:32.117Z,62.53
2018-02-06T00:38:58.645Z,53.30
2018-02-06T00:41:25.176Z,55.08
2018-02-06T00:43:51.716Z,53.53
2018-02-06T00:46:18.284Z,53.25
2018-02-06T00:48:44.729Z,50.33
2018-02-06T00:51:11.312Z,54.90
2018-02-06T00:53:38.195Z,54.20
2018-02-06T00:56:05.676Z,55.55
2018-02-06T00:58:32.220Z,51.92
2018-02-06T01:00:59.022Z,49.15
2018-02-06T01:03:27.733Z,50.97
2018-02-06T01:05:54.216Z,52.80
2018-02-06T01:08:20.778Z,56.75
2018-02-06T01:10:47.289Z,48.10
2018-02-06T01:13:13.815Z,48.70
2018-02-06T01:15:40.456Z,47.88
2018-02-06T01:18:06.904Z,44.92
2018-02-06T01:20:33.278Z,42.95
2018-02-06T01:23:00.044Z,43.67
2018-02-06T01:25:26.552Z,40.45
2018-02-06T01:27:53.087Z,44.92
2018-02-06T01:30:19.639Z,41.83
2018-02-06T01:32:47.106Z,37.20
2018-02-06T01:35:13.566Z,43.50
2018-02-06T01:37:40.188Z,46.60
2018-02-06T01:40:06.629Z,45.50
2018-02-06T01:42:33.468Z,48.17
2018-02-06T01:45:00.367Z,44.17
2018-02-06T01:47:28.071Z,42.78
2018-02-06T01:50:03.756Z,44.28
2018-02-06T01:52:30.351Z,43.28
2018-02-06T01:54:56.918Z,41.92
2018-02-06T01:57:23.759Z,44.00
2018-02-06T01:59:50.275Z,46.63
2018-02-06T02:02:17.258Z,37.60
2018-02-06T02:04:43.715Z,40.28
2018-02-06T02:07:10.580Z,42.83
2018-02-06T02:09:38.260Z,36.45
2018-02-06T02:12:05.172Z,46.10
2018-02-06T02:14:31.975Z,46.40
2018-02-06T02:16:58.551Z,47.40
2018-02-06T02:19:25.387Z,47.50
2018-02-06T02:21:51.864Z,49.40
2018-02-06T02:24:18.377Z,45.38
2018-02-06T02:26:44.959Z,48.92
2018-02-06T02:29:11.525Z,50.12
2018-02-06T02:31:38.318Z,59.33
2018-02-06T02:34:04.904Z,62.95
2018-02-06T02:36:31.365Z,61.50
2018-02-06T02:38:57.982Z,53.65
2018-02-06T02:41:25.374Z,63.17
2018-02-06T04:38:57.827Z,45.72
2018-02-06T04:41:24.693Z,45.97
2018-02-06T04:43:54.271Z,48.15
2018-02-06T04:46:20.839Z,48.75
2018-02-06T04:48:47.381Z,46.37
2018-02-06T04:51:13.900Z,46.22
2018-02-06T04:53:40.424Z,41.97
2018-02-06T04:56:06.924Z,46.20
2018-02-06T04:58:33.503Z,47.75
2018-02-06T05:01:00.046Z,42.95
2018-02-06T05:03:26.530Z,45.38
2018-02-06T05:05:53.066Z,46.30
2018-02-06T05:08:19.648Z,44.50
2018-02-06T05:10:46.438Z,50.22
2018-02-06T05:13:12.876Z,45.97
2018-02-06T05:15:39.605Z,46.70
2018-02-06T05:18:06.104Z,47.17
2018-02-06T05:20:32.583Z,51.25
2018-02-06T05:22:59.135Z,58.38
2018-02-06T05:25:25.660Z,55.08
2018-02-06T05:27:52.571Z,53.45
2018-02-06T05:30:19.383Z,53.75
2018-02-06T05:32:46.280Z,54.83
2018-02-06T05:35:12.703Z,49.55
2018-02-06T05:37:39.296Z,44.47
2018-02-06T05:40:05.818Z,46.22
2018-02-06T05:42:32.393Z,47.05
2018-02-06T05:44:58.888Z,45.80
2018-02-06T05:47:25.720Z,48.33
2018-02-06T05:49:53.106Z,43.78
2018-02-06T05:52:20.676Z,50.30
2018-02-06T05:54:47.449Z,50.72
2018-02-06T05:57:13.840Z,51.80
2018-02-06T05:59:40.836Z,55.30
2018-02-06T06:02:07.510Z,53.47
2018-02-06T06:04:33.892Z,52.22
2018-02-06T06:07:00.498Z,55.55
2018-02-06T06:09:27.090Z,58.03
2018-02-06T06:11:53.512Z,49.85
2018-02-06T06:14:19.892Z,48.87
2018-02-06T06:16:46.944Z,43.70
2018-02-06T06:19:13.434Z,49.13
2018-02-06T06:21:40.035Z,49.15
2018-02-06T06:24:06.564Z,45.83
2018-02-06T06:26:33.319Z,44.35
2018-02-06T06:28:59.859Z,44.42
2018-02-06T06:31:26.466Z,47.15
2018-02-06T06:33:53.011Z,49.97
2018-02-06T06:36:19.419Z,46.70
2018-02-06T06:38:46.303Z,46.15
2018-02-06T06:41:12.899Z,48.95
2018-02-06T06:43:39.380Z,59.35
2018-02-06T06:46:05.939Z,54.60
2018-02-06T06:48:32.522Z,53.38
2018-02-06T06:50:59.380Z,49.67
2018-02-06T06:53:25.887Z,50.47
2018-02-06T06:55:52.733Z,47.47
2018-02-06T06:58:19.115Z,50.80
2018-02-06T07:00:45.744Z,55.80
2018-02-06T07:03:12.579Z,48.78
2018-02-06T07:05:39.879Z,52.67
2018-02-06T07:08:06.255Z,48.03
2018-02-06T07:10:32.855Z,49.58
2018-02-06T07:12:59.349Z,47.80
2018-02-06T07:15:25.836Z,47.92
2018-02-06T07:17:53.085Z,50.10
2018-02-06T07:20:19.978Z,47.88
2018-02-06T07:22:47.017Z,47.80
2018-02-06T07:25:13.484Z,52.00
2018-02-06T07:27:40.082Z,50.85
2018-02-06T07:30:06.684Z,52.80
2018-02-06T07:32:33.221Z,54.22
2018-02-06T07:35:00.093Z,53.42
2018-02-06T07:37:26.527Z,56.17
2018-02-06T07:39:53.141Z,55.65
2018-02-06T07:42:19.551Z,57.22
2018-02-06T07:44:46.197Z,57.00
2018-02-06T07:47:12.997Z,51.67
2018-02-06T07:49:39.833Z,58.80
2018-02-06T07:52:06.719Z,61.23
2018-02-06T07:54:33.276Z,60.27
2018-02-06T07:57:00.660Z,67.00
2018-02-06T07:59:27.204Z,73.07
2018-02-06T08:01:53.744Z,68.60
2018-02-06T08:04:20.283Z,75.17
2018-02-06T08:06:56.708Z,73.47
2018-02-06T08:09:23.233Z,76.90
2018-02-06T08:11:49.646Z,78.53
2018-02-06T08:14:16.227Z,82.20
2018-02-06T08:16:42.765Z,79.40
2018-02-06T08:19:09.308Z,84.17
2018-02-06T08:21:35.837Z,78.33
2018-02-06T08:24:02.370Z,61.27
2018-02-06T08:26:29.020Z,55.07
2018-02-06T08:28:55.425Z,50.03
2018-02-06T08:31:21.981Z,42.63
2018-02-06T08:33:48.567Z,43.70
2018-02-06T08:36:15.057Z,40.53
2018-02-06T08:38:41.588Z,38.27
2018-02-06T08:41:08.423Z,37.73
2018-02-06T08:43:34.961Z,40.37
2018-02-06T08:46:01.824Z,36.90
2018-02-06T08:48:28.415Z,34.07
2018-02-06T08:50:54.964Z,34.57
2018-02-06T08:53:21.441Z,32.70
2018-02-06T08:55:48.012Z,32.80
2018-02-06T08:58:14.484Z,31.87
2018-02-06T09:00:41.007Z,34.60
2018-02-06T09:03:08.440Z,35.70
2018-02-06T09:05:35.373Z,34.03
2018-02-06T09:08:02.212Z,31.07
2018-02-06T09:10:28.713Z,29.37
2018-02-06T09:12:55.152Z,30.30
2018-02-06T09:15:22.152Z,28.83
2018-02-06T09:17:48.612Z,26.87
2018-02-06T09:20:15.200Z,28.37
2018-02-06T09:22:42.001Z,28.17
2018-02-06T09:25:08.588Z,23.03
2018-02-06T09:27:35.130Z,23.07
2018-02-06T09:30:01.676Z,26.20
2018-02-06T09:32:28.187Z,24.93
2018-02-06T09:34:54.750Z,24.40
2018-02-06T09:37:21.216Z,23.27
2018-02-06T09:39:47.740Z,23.60
2018-02-06T09:42:14.281Z,24.30
2018-02-06T09:44:40.871Z,25.30
2018-02-06T09:47:07.331Z,24.43
2018-02-06T09:49:34.006Z,24.63
2018-02-06T09:52:00.512Z,27.07
2018-02-06T09:54:27.879Z,23.00
2018-02-06T09:56:54.368Z,24.40
2018-02-06T09:59:20.996Z,24.87
2018-02-06T10:01:47.767Z,26.30
2018-02-06T10:04:14.620Z,23.63
2018-02-06T10:06:41.199Z,22.47
2018-02-06T10:09:07.684Z,22.70
2018-02-06T10:11:34.211Z,21.67
2018-02-06T10:14:01.387Z,22.63
2018-02-06T10:16:27.959Z,22.60
2018-02-06T10:18:54.489Z,23.87
2018-02-06T10:21:20.974Z,24.83
2018-02-06T10:23:47.567Z,22.47
2018-02-06T10:26:14.996Z,22.77
2018-02-06T10:28:41.506Z,21.33
2018-02-06T10:31:08.139Z,22.77
2018-02-06T10:33:34.636Z,20.40
2018-02-06T10:36:01.117Z,23.00
2018-02-06T10:38:29.803Z,22.40
2018-02-06T10:40:56.251Z,21.33
2018-02-06T10:43:23.071Z,20.77
2018-02-06T10:45:49.760Z,22.07
2018-02-06T10:48:16.222Z,21.77
2018-02-06T10:50:42.797Z,20.67
2018-02-06T10:53:09.362Z,21.63
2018-02-06T10:55:36.167Z,19.87
2018-02-06T10:58:02.765Z,22.03
2018-02-06T11:00:29.240Z,21.00
2018-02-06T11:02:55.785Z,21.00
2018-02-06T11:05:22.328Z,19.47
2018-02-06T11:07:49.087Z,19.50
2018-02-06T11:10:15.689Z,18.40
2018-02-06T11:12:42.273Z,18.80
2018-02-06T11:15:08.811Z,19.77
2018-02-06T11:17:35.599Z,19.10
2018-02-06T11:20:03.113Z,20.40
2018-02-06T11:22:30.565Z,18.70
2018-02-06T11:24:57.133Z,18.20
2018-02-06T11:27:23.643Z,19.42
2018-02-06T11:29:50.133Z,18.92
2018-02-06T11:32:17.067Z,16.83
2018-02-06T11:34:43.484Z,15.85
2018-02-06T11:37:10.096Z,18.02
2018-02-06T11:39:36.563Z,17.73
2018-02-06T11:42:03.154Z,18.02
2018-02-06T11:44:29.635Z,16.48
2018-02-06T11:46:57.088Z,17.25
2018-02-06T11:49:23.699Z,17.20
2018-02-06T11:51:50.133Z,18.02
2018-02-06T11:54:16.660Z,17.92
2018-02-06T11:56:43.228Z,17.45
2018-02-06T11:59:10.720Z,19.42
2018-02-06T12:01:37.547Z,17.20
2018-02-06T12:04:04.426Z,18.35
2018-02-06T12:06:31.271Z,19.20
2018-02-06T12:08:57.750Z,17.15
2018-02-06T12:11:24.268Z,18.30
2018-02-06T12:13:50.877Z,18.10
2018-02-06T12:16:17.408Z,17.52
2018-02-06T12:18:44.164Z,19.17
2018-02-06T12:21:11.023Z,18.87
2018-02-06T12:23:37.490Z,18.52
2018-02-06T12:26:04.198Z,19.98
2018-02-06T12:28:31.860Z,17.42
2018-02-06T12:30:58.469Z,17.42
2018-02-06T12:33:25.019Z,16.20
2018-02-06T12:35:51.428Z,15.73
2018-02-06T12:38:18.043Z,15.45
2018-02-06T12:40:44.590Z,16.75
2018-02-06T12:43:12.064Z,16.73
2018-02-06T12:45:38.537Z,15.32
2018-02-06T12:48:05.408Z,15.57
2018-02-06T12:50:31.924Z,16.95
2018-02-06T12:52:58.771Z,15.70
2018-02-06T12:55:25.163Z,16.20
2018-02-06T12:57:51.902Z,16.40
2018-02-06T13:00:18.369Z,15.30
2018-02-06T13:02:45.940Z,16.55
2018-02-06T13:05:12.367Z,14.75
2018-02-06T13:07:38.881Z,14.63
2018-02-06T13:10:05.341Z,16.37
2018-02-06T13:12:32.018Z,18.15
2018-02-06T13:14:58.543Z,14.05
2018-02-06T13:17:25.103Z,14.87
2018-02-06T13:19:51.487Z,13.60
2018-02-06T13:22:18.183Z,14.15
2018-02-06T13:24:44.721Z,16.77
2018-02-06T13:27:12.411Z,15.25
2018-02-06T13:29:39.290Z,14.68
2018-02-06T13:32:05.845Z,14.90
2018-02-06T13:34:32.385Z,14.77
2018-02-06T13:36:58.848Z,15.50
2018-02-06T13:39:25.482Z,17.45
2018-02-06T13:41:52.587Z,15.27
2018-02-06T13:44:19.082Z,14.73
2018-02-06T13:46:45.474Z,15.63
2018-02-06T13:49:12.139Z,15.60
2018-02-06T13:51:38.732Z,15.35
2018-02-06T13:54:05.211Z,14.93
2018-02-06T13:56:31.806Z,14.73
2018-02-06T13:58:58.334Z,16.92
2018-02-06T14:01:24.874Z,16.90
2018-02-06T14:03:51.267Z,17.15
2018-02-06T14:06:17.889Z,16.90
2018-02-06T14:08:44.524Z,13.62
2018-02-06T14:11:11.000Z,16.12
2018-02-06T14:13:39.030Z,16.92
2018-02-06T14:16:05.556Z,15.43
2018-02-06T14:18:32.103Z,16.27
2018-02-06T14:20:58.652Z,18.90
2018-02-06T14:23:25.533Z,15.90
2018-02-06T14:25:52.120Z,15.25
2018-02-06T14:28:19.479Z,17.75
2018-02-06T14:30:46.236Z,18.70
2018-02-06T14:33:12.863Z,16.80
2018-02-06T14:35:39.390Z,18.77
2018-02-06T14:38:05.980Z,19.05
2018-02-06T14:40:34.060Z,19.05
2018-02-06T14:43:00.950Z,22.08
2018-02-06T14:45:27.348Z,19.52
2018-02-06T14:47:53.943Z,22.48
2018-02-06T14:50:20.808Z,22.20
2018-02-06T14:52:48.473Z,22.13
2018-02-06T14:55:15.048Z,22.62
2018-02-06T14:57:41.808Z,20.92
2018-02-06T15:00:09.084Z,20.52
2018-02-06T15:02:35.649Z,19.17
2018-02-06T15:05:02.145Z,23.00
2018-02-06T15:07:31.322Z,22.27
2018-02-06T15:09:57.947Z,21.12
2018-02-06T15:12:24.834Z,23.52
2018-02-06T15:14:51.320Z,22.30
2018-02-06T15:17:19.157Z,22.37
2018-02-06T15:19:45.694Z,20.62
2018-02-06T15:22:12.193Z,25.55
2018-02-06T15:24:38.585Z,25.58
2018-02-06T15:27:05.255Z,24.90
2018-02-06T15:29:32.136Z,31.30
2018-02-06T15:31:58.633Z,29.17
2018-02-06T15:34:25.200Z,33.60
2018-02-06T15:36:51.666Z,28.08
2018-02-06T15:39:18.205Z,27.75
2018-02-06T15:41:44.727Z,28.58
2018-02-06T15:44:11.472Z,23.70
2018-02-06T15:46:38.144Z,24.60
2018-02-06T15:49:05.468Z,24.25
2018-02-06T15:51:32.145Z,26.37
2018-02-06T15:53:58.701Z,30.48
2018-02-06T15:56:25.199Z,24.48
2018-02-06T15:58:51.800Z,34.78
2018-02-06T16:01:19.155Z,26.83
2018-02-06T16:03:46.679Z,31.23
2018-02-06T16:06:14.203Z,36.28
2018-02-06T16:08:40.728Z,37.10
2018-02-06T16:11:07.273Z,35.30
2018-02-06T16:13:33.799Z,33.40
2018-02-06T16:16:00.275Z,32.13
2018-02-06T16:18:26.860Z,39.03
2018-02-06T16:20:53.352Z,35.08
2018-02-06T16:23:19.895Z,38.83
2018-02-06T16:25:46.415Z,36.80
2018-02-06T16:28:12.911Z,39.53
2018-02-06T16:30:39.759Z,37.10
2018-02-06T16:33:06.349Z,36.50
2018-02-06T16:35:33.112Z,41.03
2018-02-06T16:37:59.667Z,41.50
2018-02-06T16:40:26.316Z,38.03
2018-02-06T16:42:52.780Z,43.90
2018-02-06T16:45:19.344Z,45.08
2018-02-06T16:47:45.793Z,47.78
2018-02-06T16:50:12.656Z,42.92
2018-02-06T16:52:39.047Z,45.60
2018-02-06T16:55:05.756Z,44.42
2018-02-06T16:57:33.192Z,42.33
2018-02-06T16:59:59.699Z,36.67
2018-02-06T17:02:38.584Z,37.88
2018-02-06T17:05:05.014Z,36.05
2018-02-06T17:07:31.907Z,37.58
2018-02-06T17:09:59.325Z,39.47
2018-02-06T17:12:25.951Z,42.25
2018-02-06T17:14:52.488Z,38.85
2018-02-06T17:17:18.966Z,42.92
2018-02-06T17:19:46.167Z,59.55
2018-02-06T17:22:12.640Z,51.92
2018-02-06T17:24:39.244Z,60.53
2018-02-06T17:27:06.023Z,56.45
2018-02-06T17:29:34.402Z,63.03
2018-02-06T17:32:01.532Z,54.20
2018-02-06T17:34:28.152Z,56.30
2018-02-06T17:36:54.675Z,50.42
2018-02-06T17:39:21.084Z,53.70
2018-02-06T17:41:47.683Z,46.50
2018-02-06T17:44:14.289Z,46.53
2018-02-06T17:46:41.064Z,47.42
2018-02-06T17:49:07.604Z,51.45
2018-02-06T17:51:34.507Z,43.20
2018-02-06T17:54:01.032Z,43.72
2018-02-06T17:56:28.424Z,43.42
2018-02-06T17:58:54.874Z,45.28
2018-02-06T18:01:21.547Z,47.58
2018-02-06T18:03:48.044Z,47.47
2018-02-06T18:06:14.598Z,45.90
2018-02-06T18:08:41.109Z,38.63
2018-02-06T18:11:07.575Z,43.70
2018-02-06T18:13:35.138Z,40.95
2018-02-06T18:16:01.634Z,41.08
2018-02-06T18:18:28.247Z,42.20
2018-02-06T18:20:55.073Z,43.25
2018-02-06T18:23:21.553Z,39.83
2018-02-06T18:25:48.409Z,39.03
2018-02-06T18:28:15.367Z,42.35
2018-02-06T18:30:41.774Z,42.10
2018-02-06T18:33:08.318Z,43.15
2018-02-06T18:35:35.224Z,39.13
2018-02-06T18:38:01.698Z,38.05
2018-02-06T18:40:28.298Z,44.05
2018-02-06T18:42:54.778Z,42.60
2018-02-06T18:45:21.716Z,37.70
2018-02-06T18:47:48.243Z,45.12
2018-02-06T18:50:14.645Z,41.30
2018-02-06T18:52:41.253Z,41.60
2018-02-06T18:55:07.714Z,36.13
2018-02-06T18:57:34.634Z,40.55
2018-02-06T19:00:01.449Z,29.15
2018-02-06T19:02:28.010Z,31.52
2018-02-06T19:04:54.545Z,32.10
2018-02-06T19:07:21.038Z,39.63
2018-02-06T19:09:47.619Z,42.65
2018-02-06T19:12:14.022Z,33.85
2018-02-06T19:14:40.646Z,31.08
2018-02-06T19:17:07.039Z,32.22
2018-02-06T19:19:33.716Z,27.20
2018-02-06T19:22:00.247Z,26.67
2018-02-06T19:24:26.828Z,25.10
2018-02-06T19:26:53.425Z,29.15
2018-02-06T19:29:19.855Z,31.45
2018-02-06T19:31:46.467Z,29.05
2018-02-06T19:34:12.976Z,28.83
2018-02-06T19:36:39.562Z,29.02
2018-02-06T19:39:06.057Z,27.58
2018-02-06T19:41:32.539Z,30.75
2018-02-06T19:43:59.121Z,33.13
2018-02-06T19:46:25.593Z,30.15
2018-02-06T19:48:52.189Z,32.58
2018-02-06T19:51:18.765Z,35.15
2018-02-06T19:53:45.260Z,34.70
2018-02-06T19:56:12.048Z,36.30
2018-02-06T19:58:38.618Z,38.60
2018-02-06T20:01:05.051Z,38.75
2018-02-06T20:03:31.652Z,42.13
2018-02-06T20:05:58.243Z,36.85
2018-02-06T20:08:24.713Z,41.90
2018-02-06T20:10:51.676Z,36.08
2018-02-06T20:13:18.118Z,34.08
2018-02-06T20:15:44.676Z,38.13
2018-02-06T20:18:11.080Z,38.03
2018-02-06T20:20:38.001Z,37.88
2018-02-06T20:23:04.562Z,34.70
2018-02-06T20:25:31.144Z,35.10
2018-02-06T20:27:57.984Z,36.42
2018-02-06T20:30:24.537Z,48.75
2018-02-06T20:32:51.673Z,37.90
2018-02-06T20:35:18.463Z,37.15
2018-02-06T20:37:44.986Z,37.42
2018-02-06T20:40:11.637Z,37.67
2018-02-06T20:42:39.054Z,37.75
2018-02-06T20:45:05.558Z,38.47
2018-02-06T20:47:32.369Z,37.58
2018-02-06T20:49:58.954Z,39.70
2018-02-06T20:52:25.479Z,45.20
2018-02-06T20:54:52.014Z,46.58
2018-02-06T20:57:18.901Z,47.97
2018-02-06T20:59:45.393Z,46.67
2018-02-06T21:02:11.789Z,49.45
2018-02-06T21:04:39.312Z,41.08
2018-02-06T21:07:05.856Z,41.33
2018-02-06T21:09:32.449Z,44.20
2018-02-06T21:12:00.463Z,42.97
2018-02-06T21:14:27.074Z,41.15
2018-02-06T21:16:53.570Z,47.13
2018-02-06T21:19:20.067Z,50.20
2018-02-06T21:21:46.750Z,62.30
2018-02-06T21:24:13.509Z,67.60
2018-02-06T21:26:39.976Z,68.68
2018-02-06T21:29:06.427Z,72.32
2018-02-06T21:31:33.052Z,73.53
2018-02-06T21:33:59.644Z,86.78
2018-02-06T21:36:26.126Z,65.07
2018-02-06T21:38:52.730Z,49.38
2018-02-06T21:41:19.504Z,56.47
2018-02-06T21:43:46.045Z,54.00
2018-02-06T21:46:12.441Z,50.00
2018-02-06T21:48:39.176Z,55.38
2018-02-06T21:51:05.954Z,53.50
2018-02-06T21:53:32.473Z,59.58
2018-02-06T21:55:59.961Z,55.12
2018-02-06T21:58:26.467Z,61.08
2018-02-06T22:00:53.911Z,72.20
2018-02-06T22:03:20.566Z,78.53
2018-02-06T22:05:47.007Z,81.63
2018-02-06T22:08:13.622Z,87.03
2018-02-06T22:10:40.158Z,94.85
2018-02-06T22:13:06.621Z,82.72
2018-02-06T22:15:33.141Z,62.50
2018-02-06T22:17:59.682Z,62.65
2018-02-06T22:20:26.276Z,61.78
2018-02-06T22:22:52.813Z,55.08
2018-02-06T22:25:20.015Z,61.70
2018-02-06T22:27:46.455Z,62.70
2018-02-06T22:30:12.925Z,56.53
2018-02-06T22:32:40.536Z,59.75
2018-02-06T22:35:07.017Z,55.67
2018-02-06T22:37:33.806Z,53.67
2018-02-06T22:40:00.672Z,65.97
2018-02-06T22:42:27.491Z,51.47
2018-02-06T22:44:54.400Z,64.15
2018-02-06T22:47:20.929Z,59.03
2018-02-06T22:49:47.451Z,65.37
2018-02-06T22:52:13.987Z,61.15
2018-02-06T22:54:40.543Z,61.80
2018-02-06T22:57:07.328Z,54.33
2018-02-06T22:59:33.908Z,49.50
2018-02-06T23:02:00.403Z,60.05
2018-02-06T23:04:27.204Z,54.95
2018-02-06T23:06:53.765Z,51.03
2018-02-06T23:09:20.296Z,63.47
2018-02-06T23:11:46.937Z,56.47
2018-02-06T23:14:14.384Z,54.88
2018-02-06T23:16:40.840Z,60.33
2018-02-06T23:19:07.366Z,58.38
2018-02-06T23:21:33.913Z,56.75
2018-02-06T23:24:00.509Z,57.28
2018-02-06T23:26:27.012Z,58.58
2018-02-06T23:28:53.563Z,66.35
2018-02-06T23:31:20.106Z,56.63
2018-02-06T23:33:46.639Z,53.20
2018-02-06T23:36:13.147Z,51.58
2018-02-06T23:38:39.632Z,52.90
2018-02-06T23:41:06.244Z,50.45
2018-02-06T23:43:32.760Z,46.78
2018-02-06T23:45:59.304Z,50.67
2018-02-06T23:48:25.831Z,47.03
2018-02-06T23:50:52.317Z,42.67
2018-02-06T23:53:19.770Z,45.70
2018-02-06T23:55:46.396Z,45.63
2018-02-06T23:58:12.841Z,45.03
